sensor_id;sensor_type;location;lat;lon;timestamp;pressure;altitude;pressure_sealevel;temperature;humidity
54876;BME280;40764;48.472;8.166;2023-05-19T00:01:49;98655.88;;;10.18;88.04
54876;BME280;40764;48.472;8.166;2023-05-19T00:07:56;98647.56;;;10.38;86.62
54876;BME280;40764;48.472;8.166;2023-05-19T00:13:58;98643.00;;;10.29;86.28
54876;BME280;40764;48.472;8.166;2023-05-19T00:19:59;98640.00;;;10.30;87.14
54876;BME280;40764;48.472;8.166;2023-05-19T00:26:00;98641.69;;;10.21;88.02
54876;BME280;40764;48.472;8.166;2023-05-19T00:32:00;98640.91;;;10.05;88.83
54876;BME280;40764;48.472;8.166;2023-05-19T00:38:00;98638.00;;;9.81;90.47
54876;BME280;40764;48.472;8.166;2023-05-19T00:44:01;98632.03;;;9.79;92.13
54876;BME280;40764;48.472;8.166;2023-05-19T00:50:01;98632.91;;;9.65;93.02
54876;BME280;40764;48.472;8.166;2023-05-19T00:56:02;98639.41;;;9.74;92.13
54876;BME280;40764;48.472;8.166;2023-05-19T01:02:03;98634.47;;;9.81;92.44
54876;BME280;40764;48.472;8.166;2023-05-19T01:08:04;98622.25;;;9.68;93.52
54876;BME280;40764;48.472;8.166;2023-05-19T01:14:05;98619.25;;;9.65;93.71
54876;BME280;40764;48.472;8.166;2023-05-19T01:20:15;98613.00;;;9.54;94.82
54876;BME280;40764;48.472;8.166;2023-05-19T01:32:28;98611.16;;;9.39;94.76
54876;BME280;40764;48.472;8.166;2023-05-19T01:38:29;98612.28;;;9.33;94.26
54876;BME280;40764;48.472;8.166;2023-05-19T01:44:32;98613.63;;;9.36;94.52
54876;BME280;40764;48.472;8.166;2023-05-19T01:50:33;98614.22;;;9.27;94.99
54876;BME280;40764;48.472;8.166;2023-05-19T01:56:58;98615.81;;;9.34;94.26
54876;BME280;40764;48.472;8.166;2023-05-19T02:09:50;98621.84;;;9.15;95.66
54876;BME280;40764;48.472;8.166;2023-05-19T02:15:51;98619.41;;;9.09;95.89
54876;BME280;40764;48.472;8.166;2023-05-19T02:21:54;98625.16;;;9.07;96.39
54876;BME280;40764;48.472;8.166;2023-05-19T02:27:56;98620.28;;;8.79;98.81
54876;BME280;40764;48.472;8.166;2023-05-19T02:33:57;98613.69;;;9.05;98.80
54876;BME280;40764;48.472;8.166;2023-05-19T02:39:57;98607.94;;;9.17;98.58
54876;BME280;40764;48.472;8.166;2023-05-19T02:45:58;98610.97;;;9.05;98.33
54876;BME280;40764;48.472;8.166;2023-05-19T02:51:58;98604.72;;;8.89;98.98
54876;BME280;40764;48.472;8.166;2023-05-19T02:57:58;98602.81;;;9.00;100.00
54876;BME280;40764;48.472;8.166;2023-05-19T03:03:59;98602.81;;;9.00;100.00
54876;BME280;40764;48.472;8.166;2023-05-19T03:09:59;98597.91;;;8.82;100.00
54876;BME280;40764;48.472;8.166;2023-05-19T03:16:02;98594.09;;;8.98;100.00
54876;BME280;40764;48.472;8.166;2023-05-19T03:22:03;98599.00;;;8.65;100.00
54876;BME280;40764;48.472;8.166;2023-05-19T03:28:04;98606.66;;;8.68;100.00
54876;BME280;40764;48.472;8.166;2023-05-19T03:34:04;98605.81;;;8.78;100.00
54876;BME280;40764;48.472;8.166;2023-05-19T03:40:05;98611.56;;;8.77;100.00
54876;BME280;40764;48.472;8.166;2023-05-19T03:46:06;98619.44;;;8.58;100.00
54876;BME280;40764;48.472;8.166;2023-05-19T03:52:06;98618.34;;;8.59;100.00
54876;BME280;40764;48.472;8.166;2023-05-19T03:58:07;98621.06;;;8.89;100.00
54876;BME280;40764;48.472;8.166;2023-05-19T04:04:07;98615.59;;;8.94;100.00
54876;BME280;40764;48.472;8.166;2023-05-19T04:10:07;98622.97;;;9.09;100.00
54876;BME280;40764;48.472;8.166;2023-05-19T04:16:08;98615.81;;;9.23;100.00
54876;BME280;40764;48.472;8.166;2023-05-19T04:22:08;98611.47;;;9.17;100.00
54876;BME280;40764;48.472;8.166;2023-05-19T04:28:09;98615.25;;;9.37;100.00
54876;BME280;40764;48.472;8.166;2023-05-19T04:34:09;98623.94;;;9.49;100.00
54876;BME280;40764;48.472;8.166;2023-05-19T04:40:10;98620.38;;;9.53;100.00
54876;BME280;40764;48.472;8.166;2023-05-19T04:46:11;98615.66;;;9.74;100.00
54876;BME280;40764;48.472;8.166;2023-05-19T04:52:11;98618.03;;;9.96;100.00
54876;BME280;40764;48.472;8.166;2023-05-19T04:58:12;98615.75;;;10.13;98.70
54876;BME280;40764;48.472;8.166;2023-05-19T05:04:12;98613.16;;;10.37;98.51
54876;BME280;40764;48.472;8.166;2023-05-19T05:10:13;98617.66;;;10.57;98.00
54876;BME280;40764;48.472;8.166;2023-05-19T05:16:13;98616.53;;;10.63;96.99
54876;BME280;40764;48.472;8.166;2023-05-19T05:22:14;98620.59;;;11.00;95.63
54876;BME280;40764;48.472;8.166;2023-05-19T05:28:14;98611.31;;;11.25;90.86
54876;BME280;40764;48.472;8.166;2023-05-19T05:34:15;98610.44;;;11.53;88.94
54876;BME280;40764;48.472;8.166;2023-05-19T05:40:16;98608.00;;;11.99;88.17
54876;BME280;40764;48.472;8.166;2023-05-19T05:46:16;98599.72;;;12.23;86.39
54876;BME280;40764;48.472;8.166;2023-05-19T05:52:17;98599.38;;;12.62;83.87
54876;BME280;40764;48.472;8.166;2023-05-19T05:58:20;98584.22;;;12.84;84.13
54876;BME280;40764;48.472;8.166;2023-05-19T06:04:21;98583.09;;;13.17;79.03
54876;BME280;40764;48.472;8.166;2023-05-19T06:10:21;98578.25;;;13.42;74.38
54876;BME280;40764;48.472;8.166;2023-05-19T06:16:22;98576.53;;;13.46;70.68
54876;BME280;40764;48.472;8.166;2023-05-19T06:22:22;98577.53;;;13.50;68.80
54876;BME280;40764;48.472;8.166;2023-05-19T06:28:23;98578.75;;;13.30;68.00
54876;BME280;40764;48.472;8.166;2023-05-19T06:34:23;98579.16;;;13.37;71.09
54876;BME280;40764;48.472;8.166;2023-05-19T06:40:24;98581.16;;;13.86;66.79
54876;BME280;40764;48.472;8.166;2023-05-19T06:46:24;98577.09;;;14.34;66.57
54876;BME280;40764;48.472;8.166;2023-05-19T06:52:25;98585.34;;;14.47;63.91
54876;BME280;40764;48.472;8.166;2023-05-19T06:58:25;98601.16;;;14.64;64.32
54876;BME280;40764;48.472;8.166;2023-05-19T07:04:26;98596.28;;;14.25;61.99
54876;BME280;40764;48.472;8.166;2023-05-19T07:10:27;98588.22;;;14.29;62.87
54876;BME280;40764;48.472;8.166;2023-05-19T07:16:27;98585.44;;;13.92;61.54
54876;BME280;40764;48.472;8.166;2023-05-19T07:22:27;98586.84;;;14.53;61.53
54876;BME280;40764;48.472;8.166;2023-05-19T07:28:28;98578.06;;;14.74;61.02
54876;BME280;40764;48.472;8.166;2023-05-19T07:34:28;98588.72;;;14.89;59.90
54876;BME280;40764;48.472;8.166;2023-05-19T07:40:28;98566.00;;;15.06;61.84
54876;BME280;40764;48.472;8.166;2023-05-19T07:46:29;98567.09;;;15.36;61.35
54876;BME280;40764;48.472;8.166;2023-05-19T07:52:29;98563.84;;;15.73;60.04
54876;BME280;40764;48.472;8.166;2023-05-19T07:58:30;98550.41;;;15.72;59.17
54876;BME280;40764;48.472;8.166;2023-05-19T08:04:30;98558.22;;;15.96;59.15
54876;BME280;40764;48.472;8.166;2023-05-19T08:10:30;98547.66;;;15.89;57.50
54876;BME280;40764;48.472;8.166;2023-05-19T08:16:31;98547.69;;;15.49;57.74
54876;BME280;40764;48.472;8.166;2023-05-19T08:22:31;98540.50;;;15.31;56.63
54876;BME280;40764;48.472;8.166;2023-05-19T08:28:32;98545.81;;;15.28;56.18
54876;BME280;40764;48.472;8.166;2023-05-19T08:34:32;98544.06;;;15.32;57.69
54876;BME280;40764;48.472;8.166;2023-05-19T08:40:33;98525.97;;;15.39;55.74
54876;BME280;40764;48.472;8.166;2023-05-19T08:46:36;98540.91;;;15.56;58.36
54876;BME280;40764;48.472;8.166;2023-05-19T08:52:46;98543.25;;;15.31;56.99
54876;BME280;40764;48.472;8.166;2023-05-19T08:58:50;98551.13;;;15.55;59.30
54876;BME280;40764;48.472;8.166;2023-05-19T09:04:51;98552.63;;;15.30;58.24
54876;BME280;40764;48.472;8.166;2023-05-19T09:10:52;98555.84;;;15.24;59.06
54876;BME280;40764;48.472;8.166;2023-05-19T09:16:52;98553.09;;;15.24;58.03
54876;BME280;40764;48.472;8.166;2023-05-19T09:22:53;98547.78;;;15.27;58.43
54876;BME280;40764;48.472;8.166;2023-05-19T09:28:56;98546.63;;;15.28;58.79
54876;BME280;40764;48.472;8.166;2023-05-19T09:34:57;98546.63;;;15.28;59.99
54876;BME280;40764;48.472;8.166;2023-05-19T09:40:59;98541.00;;;15.33;59.20
54876;BME280;40764;48.472;8.166;2023-05-19T09:46:59;98542.03;;;15.46;61.57
54876;BME280;40764;48.472;8.166;2023-05-19T09:53:00;98537.50;;;15.50;59.59
54876;BME280;40764;48.472;8.166;2023-05-19T09:59:04;98540.41;;;15.93;57.64
54876;BME280;40764;48.472;8.166;2023-05-19T10:05:05;98541.63;;;15.70;58.69
54876;BME280;40764;48.472;8.166;2023-05-19T10:11:05;98525.97;;;15.48;58.23
54876;BME280;40764;48.472;8.166;2023-05-19T10:17:06;98531.63;;;15.91;57.50
54876;BME280;40764;48.472;8.166;2023-05-19T10:23:08;98530.03;;;15.90;57.76
54876;BME280;40764;48.472;8.166;2023-05-19T10:29:09;98524.53;;;15.50;59.17
54876;BME280;40764;48.472;8.166;2023-05-19T10:41:46;98525.81;;;15.44;57.47
54876;BME280;40764;48.472;8.166;2023-05-19T10:47:50;98530.13;;;15.28;58.54
54876;BME280;40764;48.472;8.166;2023-05-19T10:53:50;98527.94;;;15.47;57.67
54876;BME280;40764;48.472;8.166;2023-05-19T10:59:51;98523.38;;;15.43;56.87
54876;BME280;40764;48.472;8.166;2023-05-19T11:05:51;98528.34;;;15.80;56.61
54876;BME280;40764;48.472;8.166;2023-05-19T11:11:52;98526.41;;;15.81;56.67
54876;BME280;40764;48.472;8.166;2023-05-19T11:17:53;98530.91;;;15.60;56.72
54876;BME280;40764;48.472;8.166;2023-05-19T11:23:55;98531.66;;;15.52;56.83
54876;BME280;40764;48.472;8.166;2023-05-19T11:29:56;98518.03;;;15.38;57.07
54876;BME280;40764;48.472;8.166;2023-05-19T11:35:58;98523.69;;;15.41;56.96
54876;BME280;40764;48.472;8.166;2023-05-19T11:41:58;98526.56;;;15.67;56.45
54876;BME280;40764;48.472;8.166;2023-05-19T11:47:59;98520.75;;;15.77;56.24
54876;BME280;40764;48.472;8.166;2023-05-19T11:54:01;98529.97;;;15.82;57.43
54876;BME280;40764;48.472;8.166;2023-05-19T12:00:02;98526.78;;;15.97;57.82
54876;BME280;40764;48.472;8.166;2023-05-19T12:06:08;98528.56;;;15.93;56.12
54876;BME280;40764;48.472;8.166;2023-05-19T12:12:08;98538.75;;;15.84;55.87
54876;BME280;40764;48.472;8.166;2023-05-19T12:18:08;98536.81;;;15.93;55.66
54876;BME280;40764;48.472;8.166;2023-05-19T12:24:09;98525.78;;;16.45;55.63
54876;BME280;40764;48.472;8.166;2023-05-19T12:30:11;98527.59;;;16.49;56.02
54876;BME280;40764;48.472;8.166;2023-05-19T12:36:14;98523.69;;;16.59;55.60
54876;BME280;40764;48.472;8.166;2023-05-19T12:42:15;98522.38;;;16.73;52.98
54876;BME280;40764;48.472;8.166;2023-05-19T12:48:32;98517.00;;;16.86;53.50
54876;BME280;40764;48.472;8.166;2023-05-19T12:54:43;98514.09;;;16.82;54.84
54876;BME280;40764;48.472;8.166;2023-05-19T13:02:05;98518.16;;;16.59;54.20
54876;BME280;40764;48.472;8.166;2023-05-19T13:08:00;98515.91;;;16.43;53.72
54876;BME280;40764;48.472;8.166;2023-05-19T13:14:26;98511.84;;;16.32;56.82
54876;BME280;40764;48.472;8.166;2023-05-19T13:20:47;98516.53;;;15.89;54.75
54876;BME280;40764;48.472;8.166;2023-05-19T13:27:10;98518.19;;;15.98;57.15
54876;BME280;40764;48.472;8.166;2023-05-19T13:33:41;98511.00;;;15.89;57.59
54876;BME280;40764;48.472;8.166;2023-05-19T13:39:41;98506.19;;;15.94;59.22
54876;BME280;40764;48.472;8.166;2023-05-19T13:45:41;98518.31;;;15.85;58.04
54876;BME280;40764;48.472;8.166;2023-05-19T13:51:43;98508.16;;;16.20;55.63
54876;BME280;40764;48.472;8.166;2023-05-19T13:57:43;98498.22;;;16.36;56.37
54876;BME280;40764;48.472;8.166;2023-05-19T14:03:44;98493.97;;;16.56;54.85
54876;BME280;40764;48.472;8.166;2023-05-19T14:09:44;98491.41;;;16.51;55.41
54876;BME280;40764;48.472;8.166;2023-05-19T14:15:45;98486.84;;;16.46;56.17
54876;BME280;40764;48.472;8.166;2023-05-19T14:21:45;98499.38;;;16.00;57.90
54876;BME280;40764;48.472;8.166;2023-05-19T14:27:47;98496.78;;;16.04;57.56
54876;BME280;40764;48.472;8.166;2023-05-19T14:33:47;98494.97;;;16.42;56.61
54876;BME280;40764;48.472;8.166;2023-05-19T14:39:48;98483.78;;;16.39;55.12
54876;BME280;40764;48.472;8.166;2023-05-19T14:45:48;98492.66;;;16.62;55.16
54876;BME280;40764;48.472;8.166;2023-05-19T14:58:46;98485.91;;;16.25;55.61
54876;BME280;40764;48.472;8.166;2023-05-19T15:10:57;98484.09;;;16.37;56.45
54876;BME280;40764;48.472;8.166;2023-05-19T15:17:18;98479.41;;;16.29;55.62
54876;BME280;40764;48.472;8.166;2023-05-19T15:29:27;98472.09;;;16.33;56.33
54876;BME280;40764;48.472;8.166;2023-05-19T15:35:28;98474.69;;;16.30;55.81
54876;BME280;40764;48.472;8.166;2023-05-19T15:41:28;98472.59;;;16.35;57.50
54876;BME280;40764;48.472;8.166;2023-05-19T15:47:29;98473.41;;;16.19;56.36
54876;BME280;40764;48.472;8.166;2023-05-19T15:53:29;98471.28;;;16.16;56.73
54876;BME280;40764;48.472;8.166;2023-05-19T15:59:30;98465.16;;;16.01;55.88
54876;BME280;40764;48.472;8.166;2023-05-19T16:05:30;98468.53;;;15.64;56.10
54876;BME280;40764;48.472;8.166;2023-05-19T16:11:30;98468.13;;;15.48;58.08
54876;BME280;40764;48.472;8.166;2023-05-19T16:17:31;98466.03;;;15.54;58.59
54876;BME280;40764;48.472;8.166;2023-05-19T16:23:31;98464.91;;;15.55;58.75
54876;BME280;40764;48.472;8.166;2023-05-19T16:29:31;98466.41;;;15.69;58.75
54876;BME280;40764;48.472;8.166;2023-05-19T16:35:32;98458.16;;;15.78;60.75
54876;BME280;40764;48.472;8.166;2023-05-19T16:41:32;98456.69;;;15.72;58.34
54876;BME280;40764;48.472;8.166;2023-05-19T16:47:32;98450.88;;;15.73;59.92
54876;BME280;40764;48.472;8.166;2023-05-19T16:53:33;98447.13;;;15.69;60.74
54876;BME280;40764;48.472;8.166;2023-05-19T16:59:33;98451.94;;;15.46;60.09
54876;BME280;40764;48.472;8.166;2023-05-19T17:05:33;98438.84;;;15.61;60.08
54876;BME280;40764;48.472;8.166;2023-05-19T17:11:35;98439.13;;;15.42;60.26
54876;BME280;40764;48.472;8.166;2023-05-19T17:17:35;98449.00;;;15.52;61.99
54876;BME280;40764;48.472;8.166;2023-05-19T17:23:35;98442.69;;;15.42;63.27
54876;BME280;40764;48.472;8.166;2023-05-19T17:29:36;98443.66;;;15.38;62.49
54876;BME280;40764;48.472;8.166;2023-05-19T17:35:37;98439.72;;;15.30;61.66
54876;BME280;40764;48.472;8.166;2023-05-19T17:41:37;98451.38;;;15.18;61.97
54876;BME280;40764;48.472;8.166;2023-05-19T17:47:37;98439.88;;;15.16;65.33
54876;BME280;40764;48.472;8.166;2023-05-19T17:53:38;98435.19;;;15.26;60.85
54876;BME280;40764;48.472;8.166;2023-05-19T17:59:39;98441.34;;;15.31;60.61
54876;BME280;40764;48.472;8.166;2023-05-19T18:05:40;98430.41;;;15.00;67.13
54876;BME280;40764;48.472;8.166;2023-05-19T18:11:42;98428.94;;;14.94;68.21
54876;BME280;40764;48.472;8.166;2023-05-19T18:17:42;98434.16;;;15.04;62.64
54876;BME280;40764;48.472;8.166;2023-05-19T18:23:44;98437.00;;;14.91;67.33
54876;BME280;40764;48.472;8.166;2023-05-19T18:29:44;98433.28;;;14.55;70.51
54876;BME280;40764;48.472;8.166;2023-05-19T18:35:44;98431.50;;;14.51;69.47
54876;BME280;40764;48.472;8.166;2023-05-19T18:41:45;98422.59;;;14.32;72.51
54876;BME280;40764;48.472;8.166;2023-05-19T18:47:46;98418.59;;;14.38;67.21
54876;BME280;40764;48.472;8.166;2023-05-19T18:53:46;98415.19;;;14.10;69.29
54876;BME280;40764;48.472;8.166;2023-05-19T18:59:49;98423.81;;;14.17;69.29
54876;BME280;40764;48.472;8.166;2023-05-19T19:05:56;98420.38;;;13.89;73.26
54876;BME280;40764;48.472;8.166;2023-05-19T19:11:56;98435.03;;;13.48;74.57
54876;BME280;40764;48.472;8.166;2023-05-19T19:17:57;98436.47;;;13.59;75.65
54876;BME280;40764;48.472;8.166;2023-05-19T19:23:57;98447.25;;;13.28;76.39
54876;BME280;40764;48.472;8.166;2023-05-19T19:29:58;98449.63;;;13.21;77.02
54876;BME280;40764;48.472;8.166;2023-05-19T19:35:58;98442.00;;;13.18;77.81
54876;BME280;40764;48.472;8.166;2023-05-19T19:41:58;98450.03;;;13.01;80.38
54876;BME280;40764;48.472;8.166;2023-05-19T19:47:59;98447.25;;;12.87;82.02
54876;BME280;40764;48.472;8.166;2023-05-19T19:54:00;98444.59;;;12.68;82.50
54876;BME280;40764;48.472;8.166;2023-05-19T20:00:00;98443.44;;;12.42;84.34
54876;BME280;40764;48.472;8.166;2023-05-19T20:06:07;98462.50;;;12.33;84.93
54876;BME280;40764;48.472;8.166;2023-05-19T20:12:07;98467.75;;;12.16;85.39
54876;BME280;40764;48.472;8.166;2023-05-19T20:18:08;98472.63;;;11.82;86.91
54876;BME280;40764;48.472;8.166;2023-05-19T20:24:08;98459.59;;;11.73;87.96
54876;BME280;40764;48.472;8.166;2023-05-19T20:30:09;98459.28;;;11.75;88.21
54876;BME280;40764;48.472;8.166;2023-05-19T20:36:10;98448.19;;;11.66;87.52
54876;BME280;40764;48.472;8.166;2023-05-19T20:42:10;98455.72;;;11.56;88.17
54876;BME280;40764;48.472;8.166;2023-05-19T20:48:10;98460.78;;;11.67;90.24
54876;BME280;40764;48.472;8.166;2023-05-19T20:54:11;98451.53;;;11.63;89.40
54876;BME280;40764;48.472;8.166;2023-05-19T21:00:11;98444.22;;;11.59;91.73
54876;BME280;40764;48.472;8.166;2023-05-19T21:06:12;98453.53;;;11.76;89.60
54876;BME280;40764;48.472;8.166;2023-05-19T21:12:12;98441.75;;;11.76;90.10
54876;BME280;40764;48.472;8.166;2023-05-19T21:18:15;98439.09;;;11.71;90.45
54876;BME280;40764;48.472;8.166;2023-05-19T21:24:15;98437.75;;;11.49;92.99
54876;BME280;40764;48.472;8.166;2023-05-19T21:30:16;98440.06;;;11.61;92.21
54876;BME280;40764;48.472;8.166;2023-05-19T21:36:16;98425.19;;;11.67;90.55
54876;BME280;40764;48.472;8.166;2023-05-19T21:42:17;98415.94;;;11.44;92.78
54876;BME280;40764;48.472;8.166;2023-05-19T21:48:17;98417.19;;;11.33;95.17
54876;BME280;40764;48.472;8.166;2023-05-19T21:54:18;98406.59;;;11.45;94.03
54876;BME280;40764;48.472;8.166;2023-05-19T22:00:18;98400.25;;;11.31;91.93
54876;BME280;40764;48.472;8.166;2023-05-19T22:06:18;98393.66;;;11.13;92.27
54876;BME280;40764;48.472;8.166;2023-05-19T22:12:19;98407.50;;;10.98;92.91
54876;BME280;40764;48.472;8.166;2023-05-19T22:18:19;98392.97;;;11.03;94.19
54876;BME280;40764;48.472;8.166;2023-05-19T22:24:20;98395.81;;;10.74;96.18
54876;BME280;40764;48.472;8.166;2023-05-19T22:30:20;98389.25;;;10.94;96.49
54876;BME280;40764;48.472;8.166;2023-05-19T22:36:21;98380.88;;;10.85;96.14
54876;BME280;40764;48.472;8.166;2023-05-19T22:42:21;98381.94;;;10.65;97.54
54876;BME280;40764;48.472;8.166;2023-05-19T22:48:22;98370.16;;;10.70;96.93
54876;BME280;40764;48.472;8.166;2023-05-19T22:54:22;98360.50;;;10.53;97.75
54876;BME280;40764;48.472;8.166;2023-05-19T23:00:22;98358.34;;;10.50;98.77
54876;BME280;40764;48.472;8.166;2023-05-19T23:06:23;98349.44;;;10.64;98.34
54876;BME280;40764;48.472;8.166;2023-05-19T23:12:23;98350.19;;;10.21;99.18
54876;BME280;40764;48.472;8.166;2023-05-19T23:18:24;98348.50;;;10.26;100.00
54876;BME280;40764;48.472;8.166;2023-05-19T23:24:24;98340.59;;;10.48;99.93
54876;BME280;40764;48.472;8.166;2023-05-19T23:30:24;98333.16;;;10.30;99.10
54876;BME280;40764;48.472;8.166;2023-05-19T23:36:25;98323.56;;;10.32;100.00
54876;BME280;40764;48.472;8.166;2023-05-19T23:42:25;98318.28;;;10.41;100.00
54876;BME280;40764;48.472;8.166;2023-05-19T23:48:27;98318.16;;;10.27;100.00
54876;BME280;40764;48.472;8.166;2023-05-19T23:54:27;98311.66;;;10.47;100.00
